Aérodrome :
LOGIN :

S'inscrire | Disclaimer

   EN    FR    IT 

 










Légende :    VFR   VFR Marginal   IFR   IFR Intensif   IFR Très Intensif
Visi : 
Plafond : 
>= 8 km
>= 3000ft
5 à 8 km
1000 à 3000 ft
1500m à 5 km
500 à 1000 ft
800 à 1500m
200 à 500 ft
< 800m
< 200 ft
Symboles :   Orages  Brouillard  Fortes neiges  Fortes précipitations  Vent > 20 kt
SIGMETs :   Divers  Orages  Givrage  Turbulence  Onde Orograph.  Cendres Volcan.






- Altitude de l'aérodrome : 313 ft
- Code IATA : LEH


LFOH - Le Havre Octeville

DERNIER METAR :
  • 270600Z AUTO 21007KT CAVOK 08/06 Q1007 TEMPO 3000 RA BKN007 SCT025TCU OVC040

METARs EXPIRÉS :
  • 270530Z AUTO 22008KT 180V240 9999 SCT037 OVC210 08/07 Q1008
  • 270500Z AUTO 22009KT 9999 BKN040 OVC220 08/07 Q1008
  • 270430Z AUTO 22010KT CAVOK 08/07 Q1008
  • 270400Z AUTO 23010KT CAVOK 08/07 Q1008
  • 270330Z AUTO 23010KT 9999 BKN020 BKN025 BKN047 08/07 Q1009

TAF TAF LFOH
Valide du 27 à 06h jusqu'au 28 à 06h UTC


270500Z 2706/2806 21013KT 9999 OVC030
TEMPO 2706/2722 3000 RA BKN007 SCT025TCU OVC040
TEMPO 2722/2806 23027G40KT 2000 SHRA BKN015CB
PROB30
TEMPO 2800/2806 23030G50KT TSRA
ATIS : +33 2 35 54 64 93



MET'MAP, la Météo Aéronautique d'un coup d'oeil ! - Copyright ORBIFLY Décembre 2007 - Disclaimer

ORBIFLY MET'MAP TEAM :

Programmation & Développement : Alexandra Zaïnal
Sur une idée originale de : Baudouin d'Aumeries
Assistance à la programmation : Marc-Olivier Méhu
Soutien technique & logistique : Manuel Goepfert

Contact : metmap@orbifly.com




SOURCES & CREDITS :

   NOAA